createdAt,value
2017-02-15T00:00:42.864Z,26.34
2017-02-15T00:01:56.010Z,26.35
2017-02-15T00:03:09.167Z,26.29
2017-02-15T00:04:21.776Z,26.34
2017-02-15T00:05:34.947Z,26.39
2017-02-15T00:06:48.123Z,26.36
2017-02-15T00:08:01.293Z,26.41
2017-02-15T00:09:28.111Z,26.44
2017-02-15T00:12:07.875Z,26.5
2017-02-15T00:13:21.031Z,26.39
2017-02-15T00:14:34.203Z,26.41
2017-02-15T00:15:47.376Z,26.39
2017-02-15T00:17:00.536Z,26.46
2017-02-15T00:18:13.151Z,26.39
2017-02-15T00:19:25.753Z,26.41
2017-02-15T00:20:39.133Z,26.42
2017-02-15T00:21:52.305Z,26.38
2017-02-15T00:23:05.469Z,26.34
2017-02-15T00:24:18.097Z,26.35
2017-02-15T00:25:31.604Z,26.24
2017-02-15T00:26:44.197Z,26.31
2017-02-15T00:27:57.346Z,26.28
2017-02-15T00:29:24.620Z,26.27
2017-02-15T00:30:37.683Z,26.24
2017-02-15T00:31:51.094Z,26.31
2017-02-15T00:33:04.334Z,26.27
2017-02-15T00:34:17.565Z,26.41
2017-02-15T00:35:30.240Z,26.39
2017-02-15T00:36:43.493Z,26.34
2017-02-15T00:37:56.824Z,26.42
2017-02-15T00:39:10.178Z,26.34
2017-02-15T00:40:23.479Z,26.35
2017-02-15T00:41:37.221Z,26.35
2017-02-15T00:42:50.583Z,26.39
2017-02-15T00:44:17.847Z,26.39
2017-02-15T00:45:30.544Z,26.32
2017-02-15T00:46:44.006Z,26.36
2017-02-15T00:47:57.311Z,26.39
2017-02-15T00:49:10.520Z,26.35
2017-02-15T00:50:23.716Z,26.35
2017-02-15T00:51:51.169Z,26.28
2017-02-15T00:53:04.374Z,26.38
2017-02-15T00:54:17.035Z,26.39
2017-02-15T00:55:30.253Z,26.38
2017-02-15T00:56:43.416Z,26.44
2017-02-15T00:57:56.595Z,26.42
2017-02-15T00:59:09.747Z,26.42
2017-02-15T01:00:22.905Z,26.39
2017-02-15T01:01:36.083Z,26.44
2017-02-15T01:02:49.255Z,26.44
2017-02-15T01:04:16.416Z,26.39
2017-02-15T01:05:29.037Z,26.5
2017-02-15T01:06:42.209Z,26.46
2017-02-15T01:07:55.577Z,26.39
2017-02-15T01:09:08.746Z,26.41
2017-02-15T01:10:21.926Z,26.47
2017-02-15T01:11:34.533Z,26.53
2017-02-15T01:13:01.892Z,26.41
2017-02-15T01:16:10.212Z,26.51
2017-02-15T01:17:22.809Z,26.54
2017-02-15T01:18:35.972Z,26.5
2017-02-15T01:19:48.565Z,26.51
2017-02-15T01:21:01.708Z,26.56
2017-02-15T01:22:14.876Z,26.42
2017-02-15T01:23:28.047Z,26.39
2017-02-15T01:24:41.209Z,26.44
2017-02-15T01:25:54.370Z,26.36
2017-02-15T01:27:07.550Z,26.42
2017-02-15T01:28:20.163Z,26.39
2017-02-15T01:29:33.330Z,26.42
2017-02-15T01:30:46.509Z,26.36
2017-02-15T01:31:59.748Z,26.44
2017-02-15T01:33:13.046Z,26.49
2017-02-15T01:34:26.332Z,26.57
2017-02-15T01:35:39.066Z,26.49
2017-02-15T01:36:51.787Z,26.53
2017-02-15T01:38:05.074Z,26.47
2017-02-15T01:39:32.539Z,26.41
2017-02-15T01:40:45.862Z,26.56
2017-02-15T01:43:26.486Z,26.44
2017-02-15T01:44:39.994Z,26.44
2017-02-15T01:45:52.724Z,26.42
2017-02-15T01:47:05.439Z,26.41
2017-02-15T01:48:18.735Z,26.38
2017-02-15T01:49:32.042Z,26.44
2017-02-15T01:50:45.346Z,26.46
2017-02-15T01:51:58.642Z,26.35
2017-02-15T01:53:11.969Z,26.51
2017-02-15T01:54:25.256Z,26.39
2017-02-15T01:55:38.290Z,26.53
2017-02-15T01:56:51.589Z,26.5
2017-02-15T01:58:04.891Z,26.54
2017-02-15T01:59:17.619Z,26.54
2017-02-15T02:00:30.910Z,26.39
2017-02-15T02:01:43.838Z,26.46
2017-02-15T02:02:57.150Z,26.53
2017-02-15T02:04:10.442Z,26.54
2017-02-15T02:05:23.168Z,26.41
2017-02-15T02:06:36.203Z,26.5
2017-02-15T02:07:49.526Z,26.5
2017-02-15T02:09:02.814Z,26.49
2017-02-15T02:10:16.116Z,26.49
2017-02-15T02:11:29.418Z,26.53
2017-02-15T02:12:42.751Z,26.53
2017-02-15T02:13:56.052Z,26.51
2017-02-15T02:16:36.368Z,26.51
2017-02-15T02:17:49.671Z,26.59
2017-02-15T02:19:02.965Z,26.54
2017-02-15T02:20:16.269Z,26.47
2017-02-15T02:21:29.561Z,26.5
2017-02-15T02:22:42.842Z,26.5
2017-02-15T02:23:56.143Z,26.46
2017-02-15T02:25:09.463Z,26.5
2017-02-15T02:26:22.183Z,26.41
2017-02-15T02:27:34.910Z,26.41
2017-02-15T02:28:48.417Z,26.47
2017-02-15T02:30:01.711Z,26.53
2017-02-15T02:31:15.002Z,26.5
2017-02-15T02:32:28.289Z,26.49
2017-02-15T02:33:41.597Z,26.51
2017-02-15T02:34:54.899Z,26.5
2017-02-15T02:36:08.199Z,26.56
2017-02-15T02:37:21.509Z,26.44
2017-02-15T02:38:34.815Z,26.39
2017-02-15T02:39:48.105Z,26.44
2017-02-15T02:41:01.411Z,26.41
2017-02-15T02:42:14.126Z,26.44
2017-02-15T02:43:27.415Z,26.38
2017-02-15T02:44:40.913Z,26.36
2017-02-15T02:45:54.200Z,26.38
2017-02-15T02:47:07.492Z,26.35
2017-02-15T02:48:20.220Z,26.44
2017-02-15T02:49:47.700Z,26.42
2017-02-15T02:51:00.989Z,26.47
2017-02-15T02:52:14.291Z,26.41
2017-02-15T02:53:27.591Z,26.41
2017-02-15T02:54:40.884Z,26.42
2017-02-15T02:55:54.380Z,26.38
2017-02-15T02:57:07.680Z,26.35
2017-02-15T02:58:20.994Z,26.36
2017-02-15T02:59:34.310Z,26.31
2017-02-15T03:00:47.829Z,26.31
2017-02-15T03:02:01.076Z,26.23
2017-02-15T03:03:13.124Z,26.34
2017-02-15T03:04:25.756Z,26.24
2017-02-15T03:05:38.923Z,26.24
2017-02-15T03:06:52.430Z,26.32
2017-02-15T03:08:05.593Z,26.27
2017-02-15T03:09:18.753Z,26.31
2017-02-15T03:10:31.929Z,26.24
2017-02-15T03:11:45.294Z,26.27
2017-02-15T03:12:58.445Z,26.03
2017-02-15T03:14:11.637Z,25.89
2017-02-15T03:15:24.225Z,25.89
2017-02-15T03:16:37.390Z,25.94
2017-02-15T03:17:50.859Z,26.09
2017-02-15T03:19:04.052Z,26.04
2017-02-15T03:20:17.206Z,26.01
2017-02-15T03:21:30.362Z,25.94
2017-02-15T03:22:43.528Z,26.01
2017-02-15T03:23:56.688Z,25.96
2017-02-15T03:25:09.284Z,26.03
2017-02-15T03:26:22.434Z,26.04
2017-02-15T03:27:35.609Z,26.04
2017-02-15T03:28:48.964Z,26.01
2017-02-15T03:30:02.139Z,26.06
2017-02-15T03:31:15.304Z,26
2017-02-15T03:32:42.464Z,25.97
2017-02-15T03:33:55.680Z,26
2017-02-15T03:35:08.835Z,25.91
2017-02-15T03:36:21.450Z,25.93
2017-02-15T03:37:34.615Z,25.97
2017-02-15T03:38:47.774Z,25.98
2017-02-15T03:40:00.964Z,25.98
2017-02-15T03:41:14.218Z,25.98
2017-02-15T03:42:27.392Z,26.03
2017-02-15T03:43:40.762Z,25.97
2017-02-15T03:44:53.917Z,25.93
2017-02-15T03:46:07.086Z,26.03
2017-02-15T03:47:33.681Z,26.01
2017-02-15T03:48:46.859Z,25.98
2017-02-15T03:50:00.025Z,26.06
2017-02-15T03:51:13.176Z,26.04
2017-02-15T03:52:26.320Z,25.93
2017-02-15T03:53:38.929Z,25.91
2017-02-15T03:54:52.375Z,25.89
2017-02-15T03:56:05.540Z,25.86
2017-02-15T03:57:18.149Z,25.9
2017-02-15T03:58:31.333Z,25.91
2017-02-15T03:59:44.517Z,25.93
2017-02-15T04:00:57.703Z,25.93
2017-02-15T04:02:10.871Z,25.91
2017-02-15T04:03:24.022Z,25.89
2017-02-15T04:04:37.191Z,25.9
2017-02-15T04:05:50.338Z,25.91
2017-02-15T04:07:03.495Z,25.89
2017-02-15T04:08:16.659Z,25.93
2017-02-15T04:09:29.805Z,25.93
2017-02-15T04:10:42.963Z,25.96
2017-02-15T04:11:56.138Z,25.9
2017-02-15T04:13:09.306Z,25.9
2017-02-15T04:14:22.487Z,25.89
2017-02-15T04:15:35.656Z,25.91
2017-02-15T04:16:49.007Z,25.93
2017-02-15T04:18:02.175Z,25.83
2017-02-15T04:19:14.226Z,25.91
2017-02-15T04:20:27.391Z,25.91
2017-02-15T04:21:40.542Z,25.82
2017-02-15T04:22:53.709Z,25.89
2017-02-15T04:24:20.875Z,25.9
2017-02-15T04:25:34.038Z,25.81
2017-02-15T04:26:47.398Z,25.79
2017-02-15T04:28:00.565Z,25.76
2017-02-15T04:29:13.176Z,25.82
2017-02-15T04:30:26.341Z,25.76
2017-02-15T04:31:38.997Z,25.81
2017-02-15T04:32:52.299Z,25.76
2017-02-15T04:34:05.585Z,25.71
2017-02-15T04:35:18.304Z,25.75
2017-02-15T04:36:31.603Z,25.69
2017-02-15T04:37:44.889Z,25.71
2017-02-15T04:38:58.189Z,25.67
2017-02-15T04:40:11.489Z,25.72
2017-02-15T04:41:24.772Z,25.74
2017-02-15T04:42:38.087Z,25.76
2017-02-15T04:43:51.691Z,25.82
2017-02-15T04:45:05.014Z,25.81
2017-02-15T04:46:18.316Z,25.75
2017-02-15T04:47:31.615Z,25.75
2017-02-15T04:48:45.220Z,25.83
2017-02-15T04:49:58.515Z,25.86
2017-02-15T04:51:11.818Z,25.9
2017-02-15T04:52:25.116Z,25.98
2017-02-15T04:53:38.400Z,26.03
2017-02-15T04:54:51.893Z,25.97
2017-02-15T04:56:05.190Z,26.06
2017-02-15T04:57:17.912Z,26
2017-02-15T04:58:31.211Z,25.98
2017-02-15T04:59:44.696Z,26.06
2017-02-15T05:00:58.019Z,26.04
2017-02-15T05:02:11.327Z,26.08
2017-02-15T05:03:24.058Z,26.09
2017-02-15T05:04:37.358Z,26.04
2017-02-15T05:05:50.848Z,26.03
2017-02-15T05:07:03.595Z,26
2017-02-15T05:08:16.314Z,26.04
2017-02-15T05:09:43.884Z,26.08
2017-02-15T05:10:57.222Z,26.11
2017-02-15T05:12:10.530Z,26.06
2017-02-15T05:13:23.837Z,25.96
2017-02-15T05:14:37.121Z,25.9
2017-02-15T05:15:50.628Z,25.93
2017-02-15T05:17:03.878Z,25.94
2017-02-15T05:18:17.046Z,25.82
2017-02-15T05:19:44.196Z,25.76
2017-02-15T05:20:56.785Z,25.81
2017-02-15T05:22:09.372Z,25.79
2017-02-15T05:23:22.534Z,25.75
2017-02-15T05:24:35.685Z,25.85
2017-02-15T05:25:48.273Z,25.79
2017-02-15T05:27:01.636Z,25.86
2017-02-15T05:28:14.235Z,25.85
2017-02-15T05:29:27.391Z,25.9
2017-02-15T05:30:40.586Z,25.89
2017-02-15T05:31:53.962Z,25.9
2017-02-15T05:33:07.117Z,25.89
2017-02-15T05:34:20.287Z,25.83
2017-02-15T05:35:33.446Z,25.91
2017-02-15T05:36:46.607Z,25.9
2017-02-15T05:37:59.755Z,25.78
2017-02-15T05:39:12.921Z,25.75
2017-02-15T05:40:25.506Z,25.83
2017-02-15T05:41:38.807Z,25.76
2017-02-15T05:42:52.347Z,25.86
2017-02-15T05:44:05.681Z,25.9
2017-02-15T05:45:18.454Z,25.78
2017-02-15T05:46:31.789Z,25.76
2017-02-15T05:47:45.203Z,25.83
2017-02-15T05:48:58.838Z,25.76
2017-02-15T05:50:11.599Z,25.75
2017-02-15T05:51:24.948Z,25.74
2017-02-15T05:52:38.291Z,25.67
2017-02-15T05:53:51.931Z,25.59
2017-02-15T05:55:05.255Z,25.46
2017-02-15T05:56:17.943Z,25.39
2017-02-15T05:57:30.545Z,25.51
2017-02-15T05:58:43.743Z,25.49
2017-02-15T05:59:57.104Z,25.53
2017-02-15T06:01:10.284Z,25.63
2017-02-15T06:02:22.874Z,25.67
2017-02-15T06:03:36.040Z,25.63
2017-02-15T06:04:49.198Z,25.64
2017-02-15T06:06:02.355Z,25.67
2017-02-15T06:07:15.538Z,25.67
2017-02-15T06:08:28.696Z,25.66
2017-02-15T06:09:41.854Z,25.6
2017-02-15T06:10:55.218Z,25.51
2017-02-15T06:12:07.827Z,25.49
2017-02-15T06:13:20.492Z,25.56
2017-02-15T06:14:33.100Z,25.61
2017-02-15T06:15:45.692Z,25.45
2017-02-15T06:16:58.860Z,25.53
2017-02-15T06:18:11.456Z,25.54
2017-02-15T06:19:24.078Z,25.53
2017-02-15T06:20:37.232Z,25.6
2017-02-15T06:21:50.679Z,25.59
2017-02-15T06:23:03.889Z,25.61
2017-02-15T06:24:17.038Z,25.71
2017-02-15T06:25:30.192Z,25.64
2017-02-15T06:26:43.350Z,25.63
2017-02-15T06:27:56.503Z,25.64
2017-02-15T06:29:09.671Z,25.69
2017-02-15T06:30:22.285Z,25.66
2017-02-15T06:31:35.469Z,25.67
2017-02-15T06:32:48.629Z,25.69
2017-02-15T06:34:01.784Z,25.67
2017-02-15T06:35:14.388Z,25.66
2017-02-15T06:36:27.009Z,25.75
2017-02-15T06:37:40.156Z,25.76
2017-02-15T06:38:53.341Z,25.66
2017-02-15T06:40:05.946Z,25.66
2017-02-15T06:41:18.535Z,25.69
2017-02-15T06:42:31.699Z,25.63
2017-02-15T06:43:44.511Z,25.67
2017-02-15T06:44:57.673Z,25.69
2017-02-15T06:46:10.832Z,25.66
2017-02-15T06:47:23.988Z,25.74
2017-02-15T06:48:36.892Z,25.63
2017-02-15T06:49:49.494Z,25.63
2017-02-15T06:51:02.723Z,25.72
2017-02-15T06:52:14.188Z,25.57
2017-02-15T06:53:41.537Z,25.67
2017-02-15T06:54:54.694Z,25.54
2017-02-15T06:56:07.293Z,25.59
2017-02-15T06:57:20.457Z,25.6
2017-02-15T06:58:33.621Z,25.56
2017-02-15T06:59:46.225Z,25.57
2017-02-15T07:00:59.383Z,25.54
2017-02-15T07:02:11.979Z,25.49
2017-02-15T07:03:25.147Z,25.61
2017-02-15T07:04:38.038Z,25.54
2017-02-15T07:05:51.187Z,25.6
2017-02-15T07:07:04.343Z,25.51
2017-02-15T07:08:16.948Z,25.41
2017-02-15T07:09:30.115Z,25.3
2017-02-15T07:10:43.469Z,25.34
2017-02-15T07:11:56.640Z,25.41
2017-02-15T07:13:09.819Z,25.38
2017-02-15T07:14:22.970Z,25.45
2017-02-15T07:15:36.144Z,25.36
2017-02-15T07:16:49.308Z,25.45
2017-02-15T07:18:02.458Z,25.42
2017-02-15T07:19:15.048Z,25.42
2017-02-15T07:20:28.215Z,25.35
2017-02-15T07:21:41.576Z,25.42
2017-02-15T07:22:54.719Z,25.41
2017-02-15T07:24:07.325Z,25.38
2017-02-15T07:25:20.512Z,25.39
2017-02-15T07:26:33.670Z,25.45
2017-02-15T07:27:46.825Z,25.39
2017-02-15T07:28:59.415Z,25.35
2017-02-15T07:30:12.618Z,25.42
2017-02-15T07:31:25.785Z,25.31
2017-02-15T07:32:39.209Z,25.29
2017-02-15T07:33:52.514Z,25.34
2017-02-15T07:35:05.832Z,25.34
2017-02-15T07:36:19.125Z,25.42
2017-02-15T07:37:31.576Z,25.31
2017-02-15T07:38:44.871Z,25.29
2017-02-15T07:39:57.605Z,25.34
2017-02-15T07:41:10.326Z,25.39
2017-02-15T07:42:23.609Z,25.41
2017-02-15T07:43:37.194Z,25.42
2017-02-15T07:45:04.456Z,25.35
2017-02-15T07:47:44.168Z,25.35
2017-02-15T07:48:57.470Z,25.35
2017-02-15T07:50:10.783Z,25.38
2017-02-15T07:51:23.502Z,25.29
2017-02-15T07:52:36.809Z,25.29
2017-02-15T07:53:50.396Z,25.24
2017-02-15T07:55:03.707Z,25.3
2017-02-15T07:56:16.428Z,25.36
2017-02-15T07:57:44.013Z,25.2
2017-02-15T07:58:57.307Z,25.26
2017-02-15T08:00:24.598Z,25.16
2017-02-15T08:01:37.906Z,25.09
2017-02-15T08:02:50.830Z,25.16
2017-02-15T08:04:04.144Z,25.12
2017-02-15T08:05:17.448Z,25.11
2017-02-15T08:06:30.751Z,25.14
2017-02-15T08:07:44.038Z,25.16
2017-02-15T08:08:57.552Z,25.11
2017-02-15T08:10:10.855Z,25.17
2017-02-15T08:11:24.172Z,25.12
2017-02-15T08:12:37.463Z,25.11
2017-02-15T08:13:50.767Z,25.16
2017-02-15T08:15:04.068Z,25.17
2017-02-15T08:16:17.354Z,25.11
2017-02-15T08:17:30.638Z,25.14
2017-02-15T08:18:43.933Z,25.11
2017-02-15T08:19:57.419Z,25.08
2017-02-15T08:21:10.721Z,25.01
2017-02-15T08:22:23.440Z,25.07
2017-02-15T08:23:36.174Z,25.17
2017-02-15T08:24:49.657Z,25.12
2017-02-15T08:26:02.946Z,24.97
2017-02-15T08:27:16.255Z,25.04
2017-02-15T08:28:29.550Z,24.87
2017-02-15T08:29:42.868Z,24.82
2017-02-15T08:30:56.188Z,24.87
2017-02-15T08:32:09.486Z,24.94
2017-02-15T08:33:22.197Z,24.9
2017-02-15T08:34:34.930Z,24.86
2017-02-15T08:35:47.384Z,25.02
2017-02-15T08:37:00.697Z,24.93
2017-02-15T08:38:13.991Z,25.01
2017-02-15T08:39:27.283Z,25.08
2017-02-15T08:40:40.023Z,25.04
2017-02-15T08:41:53.515Z,24.83
2017-02-15T08:43:06.820Z,24.86
2017-02-15T08:44:20.122Z,24.89
2017-02-15T08:45:33.411Z,24.86
2017-02-15T08:46:46.467Z,24.93
2017-02-15T08:47:59.773Z,25.01
2017-02-15T08:49:12.523Z,25.01
2017-02-15T08:51:52.842Z,24.94
2017-02-15T08:53:05.585Z,24.94
2017-02-15T08:54:18.900Z,24.86
2017-02-15T08:55:32.183Z,24.89
2017-02-15T08:56:59.665Z,24.83
2017-02-15T08:58:12.391Z,24.87
2017-02-15T08:59:25.715Z,24.86
2017-02-15T09:00:39.015Z,24.87
2017-02-15T09:01:52.315Z,24.84
2017-02-15T09:03:05.625Z,24.92
2017-02-15T09:04:18.969Z,24.94
2017-02-15T09:05:32.260Z,24.92
2017-02-15T09:06:45.579Z,24.97
2017-02-15T09:07:58.868Z,24.86
2017-02-15T09:09:11.027Z,24.86
2017-02-15T09:10:24.316Z,24.82
2017-02-15T09:11:37.627Z,24.7
2017-02-15T09:12:50.936Z,24.64
2017-02-15T09:14:17.654Z,24.8
2017-02-15T09:15:30.939Z,24.8
2017-02-15T09:16:44.231Z,24.75
2017-02-15T09:17:57.739Z,24.68
2017-02-15T09:19:11.054Z,24.6
2017-02-15T09:20:24.342Z,24.66
2017-02-15T09:21:37.056Z,24.7
2017-02-15T09:22:50.368Z,24.71
2017-02-15T09:24:03.873Z,24.67
2017-02-15T09:25:17.182Z,24.63
2017-02-15T09:26:30.498Z,24.61
2017-02-15T09:27:43.781Z,24.56
2017-02-15T09:28:55.951Z,24.52
2017-02-15T09:30:09.268Z,24.51
2017-02-15T09:31:21.996Z,24.51
2017-02-15T09:32:35.299Z,24.45
2017-02-15T09:34:02.765Z,24.48
2017-02-15T09:35:16.082Z,24.46
2017-02-15T09:36:29.382Z,24.34
2017-02-15T09:37:42.678Z,24.44
2017-02-15T09:38:55.978Z,24.49
2017-02-15T09:40:08.949Z,24.36
2017-02-15T09:41:22.236Z,24.36
2017-02-15T09:42:35.531Z,24.39
2017-02-15T09:43:48.817Z,24.39
2017-02-15T09:45:02.130Z,24.45
2017-02-15T09:46:29.398Z,24.39
2017-02-15T09:47:42.703Z,24.52
2017-02-15T09:48:55.440Z,24.59
2017-02-15T09:50:09.062Z,24.6
2017-02-15T09:51:22.389Z,24.51
2017-02-15T09:52:35.707Z,24.56
2017-02-15T09:53:48.435Z,24.49
2017-02-15T09:55:01.180Z,24.48
2017-02-15T09:56:14.678Z,24.44
2017-02-15T09:57:27.980Z,24.44
2017-02-15T09:58:41.267Z,24.48
2017-02-15T09:59:54.555Z,24.46
2017-02-15T10:01:08.067Z,24.59
2017-02-15T10:02:20.311Z,24.59
2017-02-15T10:03:33.611Z,24.51
2017-02-15T10:04:46.340Z,24.55
2017-02-15T10:05:59.634Z,24.49
2017-02-15T10:07:13.225Z,24.52
2017-02-15T10:08:25.953Z,24.45
2017-02-15T10:09:52.658Z,24.46
2017-02-15T10:11:05.962Z,24.51
2017-02-15T10:12:33.249Z,24.46
2017-02-15T10:13:46.545Z,24.45
2017-02-15T10:14:59.848Z,24.46
2017-02-15T10:17:54.394Z,24.44
2017-02-15T10:19:07.135Z,24.42
2017-02-15T10:20:19.873Z,24.46
2017-02-15T10:21:33.362Z,24.49
2017-02-15T10:22:46.648Z,24.53
2017-02-15T10:23:59.967Z,24.56
2017-02-15T10:25:13.278Z,24.61
2017-02-15T10:26:26.043Z,24.7
2017-02-15T10:27:39.093Z,24.77
2017-02-15T10:28:52.401Z,24.82
2017-02-15T10:30:05.119Z,24.75
2017-02-15T10:31:18.434Z,24.75
2017-02-15T10:32:31.959Z,24.77
2017-02-15T10:33:45.268Z,24.79
2017-02-15T10:36:25.819Z,24.84
2017-02-15T10:37:39.121Z,24.83
2017-02-15T10:38:52.424Z,24.93
2017-02-15T10:40:19.140Z,24.89
2017-02-15T10:41:46.403Z,24.9
2017-02-15T10:43:00.022Z,24.99
2017-02-15T10:44:12.753Z,25.07
2017-02-15T10:45:25.474Z,25.01
2017-02-15T10:46:38.772Z,24.94
2017-02-15T10:47:52.069Z,25.01
2017-02-15T10:49:05.379Z,24.89
2017-02-15T10:50:18.146Z,25.01
2017-02-15T10:51:31.442Z,25.04
2017-02-15T10:52:45.504Z,25.07
2017-02-15T10:53:58.788Z,25.08
2017-02-15T10:55:12.116Z,25.27
2017-02-15T10:56:24.299Z,25.27
2017-02-15T10:57:37.632Z,25.26
2017-02-15T10:58:50.936Z,25.14
2017-02-15T11:00:04.282Z,25.09
2017-02-15T11:01:17.016Z,25.14
2017-02-15T11:02:29.756Z,25.12
2017-02-15T11:03:43.101Z,25.17
2017-02-15T11:04:56.843Z,25.26
2017-02-15T11:06:09.667Z,25.34
2017-02-15T11:07:22.464Z,25.35
2017-02-15T11:08:35.268Z,25.45
2017-02-15T11:09:48.635Z,25.48
2017-02-15T11:12:29.532Z,25.51
2017-02-15T11:13:41.844Z,25.63
2017-02-15T11:14:55.281Z,25.64
2017-02-15T11:16:08.652Z,25.64
2017-02-15T11:17:21.494Z,25.56
2017-02-15T11:18:34.783Z,25.51
2017-02-15T11:19:47.501Z,25.59
2017-02-15T11:21:00.817Z,25.59
2017-02-15T11:22:13.004Z,25.64
2017-02-15T11:23:26.312Z,25.76
2017-02-15T11:24:39.641Z,25.78
2017-02-15T11:25:52.382Z,25.86
2017-02-15T11:27:06.012Z,25.93
2017-02-15T11:28:18.768Z,25.9
2017-02-15T11:29:32.085Z,25.75
2017-02-15T11:30:45.383Z,25.85
2017-02-15T11:31:58.130Z,25.91
2017-02-15T11:33:10.332Z,25.94
2017-02-15T11:34:23.623Z,26.01
2017-02-15T11:35:36.935Z,26.04
2017-02-15T11:36:50.251Z,26.12
2017-02-15T11:38:02.990Z,26.17
2017-02-15T11:39:15.139Z,26.21
2017-02-15T11:40:28.443Z,26.27
2017-02-15T11:41:41.736Z,26.31
2017-02-15T11:42:55.037Z,26.32
2017-02-15T11:44:07.796Z,26.32
2017-02-15T11:45:21.163Z,26.23
2017-02-15T11:46:33.492Z,26.28
2017-02-15T11:47:46.966Z,26.35
2017-02-15T11:49:00.423Z,26.42
2017-02-15T11:50:27.792Z,26.38
2017-02-15T11:51:41.300Z,26.49
2017-02-15T11:52:54.813Z,26.54
2017-02-15T11:54:22.296Z,26.65
2017-02-15T11:55:35.924Z,26.56
2017-02-15T11:56:49.492Z,26.65
2017-02-15T11:58:02.553Z,26.69
2017-02-15T11:59:15.015Z,26.68
2017-02-15T12:00:28.598Z,26.66
2017-02-15T12:01:41.606Z,26.71
2017-02-15T12:02:54.694Z,26.68
2017-02-15T12:04:07.652Z,26.68
2017-02-15T12:05:20.576Z,26.79
2017-02-15T12:06:33.554Z,26.79
2017-02-15T12:07:47.115Z,26.78
2017-02-15T12:09:00.727Z,26.81
2017-02-15T12:10:14.267Z,26.84
2017-02-15T12:11:26.740Z,26.93
2017-02-15T12:12:39.763Z,26.96
2017-02-15T12:13:52.197Z,27.01
2017-02-15T12:15:05.984Z,26.94
2017-02-15T12:16:18.386Z,26.98
2017-02-15T12:17:30.811Z,26.98
2017-02-15T12:18:44.291Z,26.98
2017-02-15T12:19:57.229Z,27.08
2017-02-15T12:21:10.525Z,27.11
2017-02-15T12:22:23.275Z,27.09
2017-02-15T12:23:36.598Z,27.16
2017-02-15T12:24:49.914Z,27.2
2017-02-15T12:26:03.219Z,27.27
2017-02-15T12:27:15.950Z,27.4
2017-02-15T12:28:29.242Z,27.46
2017-02-15T12:29:42.524Z,27.58
2017-02-15T12:30:55.243Z,27.74
2017-02-15T12:32:07.970Z,27.74
2017-02-15T12:33:21.328Z,27.87
2017-02-15T12:34:34.062Z,28.08
2017-02-15T12:35:46.789Z,28.11
2017-02-15T12:37:00.112Z,28.28
2017-02-15T12:38:27.389Z,28.64
2017-02-15T12:39:40.800Z,28.73
2017-02-15T12:40:54.703Z,28.85
2017-02-15T12:42:08.195Z,28.97
2017-02-15T12:43:19.895Z,28.98
2017-02-15T12:44:33.296Z,29.11
2017-02-15T12:45:47.055Z,29.25
2017-02-15T12:47:00.493Z,29.44
2017-02-15T12:48:12.809Z,29.52
2017-02-15T12:49:25.703Z,29.63
2017-02-15T12:50:39.188Z,29.52
2017-02-15T12:51:52.734Z,29.63
2017-02-15T12:53:06.057Z,29.67
2017-02-15T12:54:18.786Z,29.95
2017-02-15T12:55:32.075Z,29.99
2017-02-15T12:56:45.362Z,30.26
2017-02-15T12:57:58.661Z,30.32
2017-02-15T12:59:11.960Z,31.1
2017-02-15T13:00:24.696Z,30.97
2017-02-15T13:01:37.996Z,31.09
2017-02-15T13:02:50.718Z,31.25
2017-02-15T13:04:03.443Z,31.41
2017-02-15T13:05:16.189Z,31.42
2017-02-15T13:06:29.491Z,31.57
2017-02-15T13:07:42.802Z,31.65
2017-02-15T13:08:56.104Z,31.62
2017-02-15T13:10:23.370Z,31.5
2017-02-15T13:11:36.661Z,31.49
2017-02-15T13:12:49.960Z,31.57
2017-02-15T13:14:17.256Z,31.64
2017-02-15T13:15:30.564Z,31.84
2017-02-15T13:16:43.868Z,32.09
2017-02-15T13:17:57.179Z,32.14
2017-02-15T13:19:09.928Z,32.24
2017-02-15T13:20:36.633Z,32.5
2017-02-15T13:21:49.946Z,32.56
2017-02-15T13:23:03.432Z,32.51
2017-02-15T13:24:15.583Z,32.35
2017-02-15T13:25:28.312Z,32.27
2017-02-15T13:26:41.037Z,32.27
2017-02-15T13:27:53.768Z,32.35
2017-02-15T13:29:07.272Z,32.56
2017-02-15T13:30:20.569Z,32.8
2017-02-15T13:31:47.856Z,33.05
2017-02-15T13:33:00.045Z,33.24
2017-02-15T13:34:13.350Z,33.17
2017-02-15T13:35:26.650Z,33.52
2017-02-15T13:36:39.964Z,33.66
2017-02-15T13:37:53.262Z,33.52
2017-02-15T13:39:06.202Z,33.52
2017-02-15T13:40:19.526Z,33.71
2017-02-15T13:41:32.817Z,33.81
2017-02-15T13:42:46.137Z,33.7
2017-02-15T13:43:59.441Z,33.94
2017-02-15T13:45:12.763Z,33.81
2017-02-15T13:46:26.259Z,33.99
2017-02-15T13:47:39.575Z,33.81
2017-02-15T13:48:52.912Z,33.89
2017-02-15T13:50:05.682Z,34.16
2017-02-15T13:51:32.398Z,34.18
2017-02-15T13:52:45.713Z,34.12
2017-02-15T13:53:58.454Z,34.11
2017-02-15T13:55:11.761Z,34.09
2017-02-15T13:56:25.070Z,34.23
2017-02-15T13:57:51.803Z,34.15
2017-02-15T13:59:05.127Z,34.28
2017-02-15T14:00:16.721Z,34.3
2017-02-15T14:01:44.011Z,34.3
2017-02-15T14:04:23.491Z,34.27
2017-02-15T14:05:37.095Z,34.28
2017-02-15T14:06:50.426Z,34.34
2017-02-15T14:08:03.736Z,34.24
2017-02-15T14:09:16.494Z,34.43
2017-02-15T14:10:29.828Z,34.49
2017-02-15T14:11:42.876Z,34.49
2017-02-15T14:12:56.192Z,34.45
2017-02-15T14:14:09.559Z,33.94
2017-02-15T14:15:22.874Z,33.57
2017-02-15T14:16:36.092Z,33.38
2017-02-15T14:17:48.698Z,33.24
2017-02-15T14:19:01.866Z,33.49
2017-02-15T14:20:15.055Z,33.82
2017-02-15T14:21:28.222Z,33.99
2017-02-15T14:22:40.852Z,34.14
2017-02-15T14:23:54.017Z,34.36
2017-02-15T14:25:07.209Z,34.5
2017-02-15T14:26:19.277Z,34.52
2017-02-15T14:27:32.688Z,34.73
2017-02-15T14:28:45.296Z,35
2017-02-15T14:29:58.467Z,35.18
2017-02-15T14:31:10.511Z,35.31
2017-02-15T14:32:23.159Z,35.54
2017-02-15T14:33:36.632Z,35.61
2017-02-15T14:34:49.813Z,35.65
2017-02-15T14:36:16.988Z,35.76
2017-02-15T14:37:30.141Z,35.62
2017-02-15T14:38:43.505Z,35.37
2017-02-15T14:39:56.122Z,35.31
2017-02-15T14:41:08.183Z,35.17
2017-02-15T14:42:21.344Z,34.98
2017-02-15T14:43:34.268Z,34.6
2017-02-15T14:46:28.593Z,34.05
2017-02-15T14:47:55.763Z,34
2017-02-15T14:49:08.941Z,34.01
2017-02-15T14:50:22.106Z,33.93
2017-02-15T14:51:35.265Z,33.68
2017-02-15T14:52:48.440Z,33.49
2017-02-15T14:54:01.612Z,33.17
2017-02-15T14:55:13.852Z,33.05
2017-02-15T14:56:26.464Z,32.91
2017-02-15T14:57:39.063Z,32.8
2017-02-15T14:58:51.666Z,32.93
2017-02-15T15:00:04.819Z,33.2
2017-02-15T15:01:17.419Z,33.28
2017-02-15T15:02:30.027Z,33.33
2017-02-15T15:03:43.213Z,33.14
2017-02-15T15:04:56.390Z,33.05
2017-02-15T15:06:09.216Z,32.85
2017-02-15T15:07:21.857Z,32.93
2017-02-15T15:08:35.030Z,32.96
2017-02-15T15:09:48.204Z,33.06
2017-02-15T15:11:01.560Z,33.18
2017-02-15T15:12:14.729Z,33.26
2017-02-15T15:13:41.898Z,33.28
2017-02-15T15:14:55.157Z,33.21
2017-02-15T15:16:07.965Z,33.33
2017-02-15T15:17:20.582Z,33.28
2017-02-15T15:18:33.756Z,33.29
2017-02-15T15:19:46.922Z,33.21
2017-02-15T15:21:00.113Z,33.22
2017-02-15T15:22:13.273Z,33.11
2017-02-15T15:23:25.892Z,33.07
2017-02-15T15:24:39.070Z,33.11
2017-02-15T15:25:52.237Z,33.14
2017-02-15T15:27:05.156Z,33.21
2017-02-15T15:28:17.775Z,33.31
2017-02-15T15:29:30.389Z,33.34
2017-02-15T15:30:57.008Z,33.34
2017-02-15T15:32:09.803Z,33.17
2017-02-15T15:33:22.437Z,33.17
2017-02-15T15:34:35.600Z,33.17
2017-02-15T15:35:48.775Z,33.06
2017-02-15T15:37:01.373Z,33.12
2017-02-15T15:38:13.994Z,33.06
2017-02-15T15:39:27.186Z,33.02
2017-02-15T15:40:40.384Z,32.99
2017-02-15T15:41:53.553Z,32.93
2017-02-15T15:43:06.920Z,32.9
2017-02-15T15:44:34.116Z,32.84
2017-02-15T15:45:47.284Z,32.81
2017-02-15T15:47:00.453Z,32.8
2017-02-15T15:48:13.047Z,32.76
2017-02-15T15:49:26.732Z,32.69
2017-02-15T15:50:39.331Z,32.68
2017-02-15T15:51:52.487Z,32.69
2017-02-15T15:53:05.663Z,32.73
2017-02-15T15:54:18.839Z,32.65
2017-02-15T15:55:32.029Z,32.69
2017-02-15T15:56:45.198Z,32.71
2017-02-15T15:57:58.354Z,32.59
2017-02-15T15:59:11.524Z,32.59
2017-02-15T16:00:24.137Z,32.5
2017-02-15T16:01:37.299Z,32.53
2017-02-15T16:02:50.493Z,32.63
2017-02-15T16:04:03.097Z,32.61
2017-02-15T16:05:16.267Z,32.5
2017-02-15T16:06:29.435Z,32.56
2017-02-15T16:07:41.497Z,32.34
2017-02-15T16:08:54.103Z,32.24
2017-02-15T16:10:07.499Z,32.13
2017-02-15T16:11:34.130Z,32.1